createdAt,value
2022-09-25T00:00:59.188Z,1.00
2022-09-25T00:03:28.549Z,1.00
2022-09-25T00:06:02.597Z,1.00
2022-09-25T00:08:29.699Z,1.00
2022-09-25T00:10:56.811Z,1.00
2022-09-25T00:13:24.052Z,1.00
2022-09-25T00:15:56.066Z,1.00
2022-09-25T00:18:43.169Z,1.00
2022-09-25T00:21:12.719Z,1.00
2022-09-25T00:23:41.184Z,1.00
2022-09-25T00:26:09.049Z,1.00
2022-09-25T00:28:36.929Z,1.00
2022-09-25T00:31:04.909Z,1.00
2022-09-25T00:33:35.533Z,1.00
2022-09-25T00:36:07.907Z,1.00
2022-09-25T00:38:36.739Z,1.00
2022-09-25T00:41:05.258Z,1.00
2022-09-25T00:43:44.580Z,1.00
2022-09-25T00:46:16.698Z,1.00
2022-09-25T00:48:51.111Z,1.00
2022-09-25T00:51:21.261Z,1.00
2022-09-25T00:53:49.593Z,1.00
2022-09-25T00:56:16.761Z,1.00
2022-09-25T00:58:43.864Z,1.00
2022-09-25T01:01:11.187Z,1.00
2022-09-25T01:03:40.656Z,1.00
2022-09-25T01:06:10.362Z,1.00
2022-09-25T01:08:38.515Z,1.00
2022-09-25T01:11:05.457Z,1.00
2022-09-25T01:13:32.560Z,1.00
2022-09-25T01:16:02.088Z,1.00
2022-09-25T01:19:10.520Z,1.00
2022-09-25T01:21:43.593Z,1.00
2022-09-25T01:24:41.191Z,1.00
2022-09-25T01:27:35.856Z,1.00
2022-09-25T01:30:22.959Z,1.00
2022-09-25T01:33:11.207Z,1.00
2022-09-25T01:35:49.192Z,1.00
2022-09-25T01:38:27.938Z,1.00
2022-09-25T01:41:09.375Z,1.00
2022-09-25T01:43:46.597Z,1.00
2022-09-25T01:46:21.741Z,1.00
2022-09-25T01:48:54.789Z,1.00
2022-09-25T01:51:31.436Z,1.00
2022-09-25T01:54:07.911Z,1.00
2022-09-25T01:56:50.339Z,1.00
2022-09-25T01:59:33.673Z,1.00
2022-09-25T02:02:03.159Z,1.00
2022-09-25T02:04:37.151Z,1.00
2022-09-25T02:07:09.361Z,1.00
2022-09-25T02:09:51.411Z,1.00
2022-09-25T02:12:46.799Z,1.00
2022-09-25T02:15:25.009Z,1.00
2022-09-25T02:18:26.809Z,1.00
2022-09-25T02:21:02.715Z,1.00
2022-09-25T02:23:35.731Z,1.00
2022-09-25T02:26:15.661Z,1.00
2022-09-25T02:28:43.373Z,1.00
2022-09-25T02:31:12.656Z,1.00
2022-09-25T02:33:39.455Z,1.00
2022-09-25T02:36:06.530Z,1.00
2022-09-25T02:38:34.677Z,1.00
2022-09-25T02:41:06.987Z,1.00
2022-09-25T02:43:44.865Z,1.00
2022-09-25T02:46:25.853Z,1.00
2022-09-25T02:49:05.975Z,1.00
2022-09-25T02:51:38.689Z,1.00
2022-09-25T02:54:21.043Z,1.00
2022-09-25T02:57:03.932Z,1.00
2022-09-25T02:59:38.243Z,1.00
2022-09-25T03:02:05.646Z,1.00
2022-09-25T03:04:35.600Z,1.00
2022-09-25T03:07:03.299Z,1.00
2022-09-25T03:09:36.737Z,1.00
2022-09-25T03:12:07.147Z,1.00
2022-09-25T03:14:33.983Z,1.00
2022-09-25T03:17:04.700Z,1.00
2022-09-25T03:19:31.646Z,1.00
2022-09-25T03:21:58.566Z,1.00
2022-09-25T03:24:25.993Z,1.00
2022-09-25T03:26:54.003Z,1.00
2022-09-25T03:29:21.563Z,1.00
2022-09-25T03:31:49.130Z,1.00
2022-09-25T03:34:17.777Z,1.00
2022-09-25T03:36:47.354Z,1.00
2022-09-25T03:39:17.680Z,1.00
2022-09-25T03:41:45.356Z,1.00
2022-09-25T03:44:12.602Z,1.00
2022-09-25T03:46:39.696Z,1.00
2022-09-25T03:49:08.169Z,1.00
2022-09-25T03:51:35.241Z,1.00
2022-09-25T03:54:04.064Z,1.00
2022-09-25T03:56:31.704Z,1.00
2022-09-25T03:58:58.876Z,1.00
2022-09-25T04:01:27.377Z,1.00
2022-09-25T04:03:54.494Z,1.00
2022-09-25T04:06:24.144Z,1.00
2022-09-25T04:08:51.898Z,1.00
2022-09-25T04:11:20.175Z,1.00
2022-09-25T04:13:47.536Z,1.00
2022-09-25T04:16:16.254Z,1.00
2022-09-25T04:18:43.706Z,1.00
2022-09-25T04:21:12.690Z,1.00
2022-09-25T04:23:40.091Z,1.00
2022-09-25T04:26:07.754Z,1.00
2022-09-25T04:28:35.583Z,1.00
2022-09-25T04:31:03.804Z,1.00
2022-09-25T04:33:46.353Z,1.00
2022-09-25T04:36:14.020Z,1.00
2022-09-25T04:38:40.855Z,1.00
2022-09-25T04:41:08.140Z,1.00
2022-09-25T04:43:35.343Z,1.00
2022-09-25T04:46:08.238Z,1.00
2022-09-25T04:48:35.882Z,1.00
2022-09-25T04:51:04.042Z,1.00
2022-09-25T04:53:32.027Z,1.00
2022-09-25T04:56:04.353Z,1.00
2022-09-25T04:58:31.284Z,1.00
2022-09-25T05:01:06.123Z,1.00
2022-09-25T05:03:33.187Z,1.00
2022-09-25T05:06:00.207Z,1.00
2022-09-25T05:08:27.913Z,1.00
2022-09-25T05:10:54.863Z,1.00
2022-09-25T05:13:21.666Z,1.00
2022-09-25T05:15:48.454Z,1.00
2022-09-25T05:18:23.501Z,1.00
2022-09-25T05:20:51.348Z,1.00
2022-09-25T05:23:18.292Z,1.00
2022-09-25T05:25:51.745Z,1.00
2022-09-25T05:28:18.732Z,1.00
2022-09-25T05:30:45.482Z,1.00
2022-09-25T05:33:12.206Z,1.00
2022-09-25T05:35:38.955Z,1.00
2022-09-25T05:38:06.704Z,1.00
2022-09-25T05:40:33.555Z,1.00
2022-09-25T05:43:02.097Z,1.00
2022-09-25T05:45:28.856Z,1.00
2022-09-25T05:48:06.811Z,1.00
2022-09-25T05:50:33.829Z,1.00
2022-09-25T05:53:02.761Z,1.00
2022-09-25T05:55:30.313Z,1.00
2022-09-25T05:58:04.461Z,1.00
2022-09-25T06:00:33.108Z,1.00
2022-09-25T06:03:01.683Z,1.00
2022-09-25T06:05:28.864Z,1.00
2022-09-25T06:07:56.128Z,1.00
2022-09-25T06:10:25.200Z,1.00
2022-09-25T06:12:56.045Z,1.00
2022-09-25T06:15:24.047Z,1.00
2022-09-25T06:17:50.800Z,1.00
2022-09-25T06:20:17.834Z,1.00
2022-09-25T06:22:44.643Z,1.00
2022-09-25T06:25:11.504Z,1.00
2022-09-25T06:27:38.272Z,1.00
2022-09-25T06:30:05.805Z,3.40
2022-09-25T06:32:32.575Z,11.60
2022-09-25T06:34:59.301Z,15.10
2022-09-25T06:37:26.053Z,25.00
2022-09-25T06:39:52.877Z,18.50
2022-09-25T06:42:19.936Z,14.70
2022-09-25T06:44:47.122Z,9.10
2022-09-25T06:47:18.482Z,1.00
2022-09-25T06:49:46.613Z,1.00
2022-09-25T06:52:13.462Z,1.00
2022-09-25T06:54:43.934Z,1.00
2022-09-25T06:57:12.583Z,1.00
2022-09-25T06:59:40.302Z,1.00
2022-09-25T07:02:27.550Z,1.00
2022-09-25T07:04:54.503Z,1.00
2022-09-25T07:07:21.234Z,1.00
2022-09-25T07:09:51.135Z,1.00
2022-09-25T07:12:18.519Z,1.00
2022-09-25T07:14:47.030Z,1.00
2022-09-25T07:17:14.604Z,1.00
2022-09-25T07:19:41.357Z,1.00
2022-09-25T07:22:08.161Z,1.00
2022-09-25T07:24:34.898Z,1.00
2022-09-25T07:27:01.786Z,1.00
2022-09-25T07:29:29.431Z,1.00
2022-09-25T07:31:56.293Z,1.00
2022-09-25T07:34:23.295Z,1.00
2022-09-25T07:36:54.479Z,1.00
2022-09-25T07:39:21.217Z,1.00
2022-09-25T07:41:48.009Z,1.00
2022-09-25T07:44:36.218Z,1.00
2022-09-25T07:47:03.745Z,1.00
2022-09-25T07:49:31.987Z,1.00
2022-09-25T07:51:59.627Z,1.00
2022-09-25T07:54:26.395Z,1.00
2022-09-25T07:56:53.178Z,1.00
2022-09-25T07:59:20.111Z,1.00
2022-09-25T08:01:51.205Z,1.00
2022-09-25T08:04:20.718Z,1.00
2022-09-25T08:06:47.519Z,1.00
2022-09-25T08:09:14.362Z,1.00
2022-09-25T08:11:41.111Z,1.00
2022-09-25T08:14:07.936Z,1.00
2022-09-25T08:16:34.752Z,1.00
2022-09-25T08:19:01.588Z,1.00
2022-09-25T08:21:28.318Z,1.00
2022-09-25T08:23:56.492Z,1.00
2022-09-25T08:26:23.707Z,1.00
2022-09-25T08:28:51.804Z,1.00
2022-09-25T08:31:18.713Z,1.00
2022-09-25T08:33:50.074Z,1.00
2022-09-25T08:36:17.765Z,1.00
2022-09-25T08:38:45.483Z,1.00
2022-09-25T08:41:27.934Z,1.00
2022-09-25T08:44:07.121Z,1.00
2022-09-25T08:47:19.297Z,1.00
2022-09-25T08:50:05.223Z,1.00
2022-09-25T08:52:32.875Z,1.00
2022-09-25T08:54:59.755Z,1.00
2022-09-25T08:57:39.377Z,1.00
2022-09-25T09:00:20.628Z,1.00
2022-09-25T09:02:54.126Z,1.00
2022-09-25T09:05:23.699Z,1.00
2022-09-25T09:07:56.814Z,1.00
2022-09-25T09:10:57.708Z,1.00
2022-09-25T09:13:54.431Z,99.90
2022-09-25T09:16:36.207Z,99.90
2022-09-25T09:19:05.841Z,1.00
2022-09-25T09:21:32.551Z,1.00
2022-09-25T09:24:06.112Z,99.90
2022-09-25T09:26:50.052Z,99.90
2022-09-25T09:29:54.484Z,99.90
2022-09-25T09:32:27.275Z,99.90
2022-09-25T09:35:17.657Z,99.90
2022-09-25T09:38:09.043Z,99.90
2022-09-25T09:40:49.285Z,99.90
2022-09-25T09:43:57.388Z,99.90
2022-09-25T09:46:43.070Z,99.90
2022-09-25T09:49:35.295Z,99.90
2022-09-25T09:52:14.616Z,99.90
2022-09-25T09:54:48.480Z,99.90
2022-09-25T09:57:21.055Z,99.90
2022-09-25T10:00:05.318Z,99.90
2022-09-25T10:02:57.187Z,99.90
2022-09-25T10:05:53.276Z,99.90
2022-09-25T10:08:20.150Z,99.90
2022-09-25T10:10:53.848Z,99.90
2022-09-25T10:13:32.799Z,99.90
2022-09-25T10:16:14.680Z,99.90
2022-09-25T10:19:04.293Z,99.90
2022-09-25T10:21:38.583Z,99.90
2022-09-25T10:24:05.581Z,99.90
2022-09-25T10:26:35.787Z,99.90
2022-09-25T10:29:05.612Z,99.90
2022-09-25T10:31:42.008Z,99.90
2022-09-25T10:34:17.757Z,99.90
2022-09-25T10:36:53.187Z,99.90
2022-09-25T10:39:46.280Z,99.90
2022-09-25T10:42:34.937Z,99.90
2022-09-25T10:45:23.868Z,99.90
2022-09-25T10:48:09.958Z,99.90
2022-09-25T10:50:37.315Z,99.90
2022-09-25T10:53:05.426Z,99.90
2022-09-25T10:55:51.435Z,99.90
2022-09-25T10:58:25.609Z,99.90
2022-09-25T11:00:57.805Z,99.90
2022-09-25T11:03:28.771Z,99.90
2022-09-25T11:06:04.979Z,99.90
2022-09-25T11:08:37.936Z,99.90
2022-09-25T11:11:08.459Z,99.90
2022-09-25T11:13:53.122Z,99.90
2022-09-25T11:16:20.348Z,99.90
2022-09-25T11:18:50.562Z,99.90
2022-09-25T11:21:45.690Z,99.90
2022-09-25T11:24:51.543Z,99.90
2022-09-25T11:27:33.016Z,99.90
2022-09-25T11:30:18.717Z,99.90
2022-09-25T11:32:58.355Z,99.90
2022-09-25T11:35:39.870Z,99.90
2022-09-25T11:38:13.354Z,99.90
2022-09-25T11:41:20.492Z,99.90
2022-09-25T11:44:12.467Z,99.90
2022-09-25T11:47:01.125Z,99.90
2022-09-25T11:49:31.370Z,99.90
2022-09-25T11:52:06.979Z,99.90
2022-09-25T11:54:53.730Z,99.90
2022-09-25T11:57:57.657Z,99.90
2022-09-25T12:00:45.063Z,99.90
2022-09-25T12:03:14.896Z,99.90
2022-09-25T12:06:07.670Z,99.90
2022-09-25T12:09:10.203Z,99.90
2022-09-25T12:12:01.929Z,99.90
2022-09-25T12:14:38.031Z,99.90
2022-09-25T12:17:36.089Z,99.90
2022-09-25T12:20:26.048Z,99.90
2022-09-25T12:22:56.158Z,99.90
2022-09-25T12:25:33.187Z,99.90
2022-09-25T12:28:21.680Z,99.90
2022-09-25T12:31:06.344Z,99.90
2022-09-25T12:33:52.435Z,99.90
2022-09-25T12:36:35.496Z,99.90
2022-09-25T12:39:25.684Z,99.90
2022-09-25T12:42:13.715Z,99.90
2022-09-25T12:44:53.094Z,99.90
2022-09-25T12:47:33.285Z,99.90
2022-09-25T12:50:28.691Z,99.90
2022-09-25T12:53:01.116Z,99.90
2022-09-25T12:55:38.832Z,99.90
2022-09-25T12:58:08.342Z,99.90
2022-09-25T13:00:41.595Z,99.90
2022-09-25T13:03:33.156Z,99.90
2022-09-25T13:06:10.275Z,99.90
2022-09-25T13:09:06.940Z,99.90
2022-09-25T13:11:47.506Z,99.90
2022-09-25T13:14:32.007Z,99.90
2022-09-25T13:17:01.083Z,70.50
2022-09-25T13:19:30.437Z,57.20
2022-09-25T13:22:07.505Z,40.40
2022-09-25T13:24:52.711Z,35.10
2022-09-25T13:27:23.753Z,6.90
2022-09-25T13:29:57.404Z,1.00
2022-09-25T13:32:30.595Z,1.00
2022-09-25T13:35:02.802Z,1.00
2022-09-25T13:37:33.291Z,1.00
2022-09-25T13:40:20.771Z,1.00
2022-09-25T13:42:47.821Z,1.00
2022-09-25T13:45:33.952Z,1.00
2022-09-25T13:48:12.525Z,1.00
2022-09-25T13:50:45.193Z,3.50
2022-09-25T13:53:26.583Z,7.80
2022-09-25T13:55:56.106Z,17.60
2022-09-25T13:58:28.375Z,18.70
2022-09-25T14:01:01.083Z,16.60
2022-09-25T14:03:46.932Z,2.60
2022-09-25T14:06:17.832Z,24.90
2022-09-25T14:08:45.551Z,33.00
2022-09-25T14:11:15.500Z,25.00
2022-09-25T14:13:46.266Z,25.00
2022-09-25T14:16:27.841Z,44.00
2022-09-25T14:18:58.128Z,54.60
2022-09-25T14:21:26.538Z,42.70
2022-09-25T14:24:11.783Z,25.20
2022-09-25T14:26:44.917Z,25.20
2022-09-25T14:29:17.469Z,25.30
2022-09-25T14:32:03.927Z,17.00
2022-09-25T14:35:01.853Z,25.20
2022-09-25T14:37:47.431Z,45.20
2022-09-25T14:40:25.579Z,51.80
2022-09-25T14:42:55.426Z,83.20
2022-09-25T14:45:31.757Z,90.30
2022-09-25T14:48:02.953Z,64.30
2022-09-25T14:50:34.516Z,54.60
2022-09-25T14:53:08.189Z,73.80
2022-09-25T14:55:38.282Z,69.20
2022-09-25T14:58:09.648Z,54.30
2022-09-25T15:00:44.903Z,67.30
2022-09-25T15:03:14.320Z,83.10
2022-09-25T15:05:47.713Z,73.20
2022-09-25T15:08:23.882Z,56.90
2022-09-25T15:11:10.925Z,44.50
2022-09-25T15:13:37.887Z,66.10
2022-09-25T15:16:24.677Z,80.50
2022-09-25T15:18:55.116Z,83.50
2022-09-25T15:21:24.323Z,97.20
2022-09-25T15:23:53.365Z,99.90
2022-09-25T15:26:21.540Z,99.90
2022-09-25T15:28:48.970Z,98.00
2022-09-25T15:31:16.108Z,94.20
2022-09-25T15:33:42.989Z,83.00
2022-09-25T15:36:22.893Z,94.00
2022-09-25T15:39:00.729Z,96.80
2022-09-25T15:41:28.210Z,90.10
2022-09-25T15:44:13.053Z,90.80
2022-09-25T15:46:52.105Z,82.50
2022-09-25T15:49:34.177Z,90.30
2022-09-25T15:52:04.787Z,91.00
2022-09-25T15:54:36.145Z,90.00
2022-09-25T15:57:28.121Z,83.10
2022-09-25T16:00:13.583Z,91.20
2022-09-25T16:03:17.347Z,90.80
2022-09-25T16:05:48.512Z,84.30
2022-09-25T16:08:15.487Z,82.50
2022-09-25T16:10:46.451Z,82.40
2022-09-25T16:13:22.889Z,82.50
2022-09-25T16:15:54.845Z,82.50
2022-09-25T16:18:26.098Z,90.80
2022-09-25T16:21:18.413Z,90.90
2022-09-25T16:23:56.651Z,94.00
2022-09-25T16:26:25.601Z,96.30
2022-09-25T16:29:06.237Z,99.50
2022-09-25T16:31:36.110Z,99.60
2022-09-25T16:34:03.723Z,93.70
2022-09-25T16:36:42.820Z,82.30
2022-09-25T16:39:09.575Z,71.40
2022-09-25T16:41:38.678Z,72.90
2022-09-25T16:44:22.712Z,63.20
2022-09-25T16:46:52.525Z,50.30
2022-09-25T16:49:22.520Z,57.20
2022-09-25T16:51:51.824Z,62.10
2022-09-25T16:54:21.468Z,58.60
2022-09-25T16:56:48.913Z,60.00
2022-09-25T16:59:18.788Z,61.10
2022-09-25T17:01:47.181Z,65.80
2022-09-25T17:04:15.769Z,58.90
2022-09-25T17:06:45.802Z,50.10
2022-09-25T17:09:14.371Z,40.00
2022-09-25T17:11:44.259Z,23.90
2022-09-25T17:14:21.102Z,24.10
2022-09-25T17:16:47.906Z,1.00
2022-09-25T17:19:19.197Z,1.00
2022-09-25T17:21:48.032Z,1.00
2022-09-25T17:24:16.219Z,1.00
2022-09-25T17:26:43.658Z,1.00
2022-09-25T17:29:10.998Z,1.00
2022-09-25T17:31:37.973Z,1.00
2022-09-25T17:34:25.160Z,1.00
2022-09-25T17:36:52.449Z,1.00
2022-09-25T17:39:19.183Z,1.00
2022-09-25T17:41:46.315Z,1.00
2022-09-25T17:44:17.944Z,1.50
2022-09-25T17:46:44.999Z,1.00
2022-09-25T17:49:11.978Z,1.00
2022-09-25T17:51:39.409Z,1.00
2022-09-25T17:54:06.682Z,11.00
2022-09-25T17:56:34.853Z,23.20
2022-09-25T17:59:02.465Z,23.20
2022-09-25T18:01:34.242Z,23.10
2022-09-25T18:04:21.123Z,28.00
2022-09-25T18:06:49.650Z,34.80
2022-09-25T18:09:16.505Z,43.00
2022-09-25T18:11:44.070Z,50.90
2022-09-25T18:14:12.756Z,51.30
2022-09-25T18:16:42.018Z,56.70
2022-09-25T18:19:38.303Z,58.40
2022-09-25T18:22:17.923Z,66.90
2022-09-25T18:24:46.037Z,79.80
2022-09-25T18:27:14.903Z,79.90
2022-09-25T18:29:41.683Z,79.80
2022-09-25T18:32:08.706Z,79.80
2022-09-25T18:34:35.519Z,79.80
2022-09-25T18:37:02.366Z,79.80
2022-09-25T18:39:30.404Z,79.80
2022-09-25T18:41:57.204Z,79.70
2022-09-25T18:44:24.037Z,79.60
2022-09-25T18:46:51.691Z,79.60
2022-09-25T18:49:19.275Z,90.30
2022-09-25T18:51:46.447Z,79.50
2022-09-25T18:54:14.394Z,79.50
2022-09-25T18:56:41.532Z,81.50
2022-09-25T18:59:08.467Z,83.50
2022-09-25T19:01:36.359Z,91.10
2022-09-25T19:04:03.690Z,94.50
2022-09-25T19:06:30.692Z,97.10
2022-09-25T19:08:57.907Z,99.90
2022-09-25T19:11:26.614Z,99.90
2022-09-25T19:13:54.428Z,99.90
2022-09-25T19:16:21.915Z,99.90
2022-09-25T19:18:50.368Z,99.90
2022-09-25T19:21:22.306Z,99.90
2022-09-25T19:23:50.134Z,99.90
2022-09-25T19:26:21.026Z,99.90
2022-09-25T19:28:48.514Z,99.90
2022-09-25T19:31:21.158Z,99.90
2022-09-25T19:33:48.376Z,99.90
2022-09-25T19:36:27.514Z,99.90
2022-09-25T19:38:54.832Z,99.90
2022-09-25T19:41:26.332Z,99.90
2022-09-25T19:43:56.576Z,99.90
2022-09-25T19:46:23.901Z,99.90
2022-09-25T19:48:50.741Z,99.90
2022-09-25T19:51:21.063Z,99.90
2022-09-25T19:53:48.481Z,99.90
2022-09-25T19:56:15.792Z,99.90
2022-09-25T19:58:43.131Z,99.90
2022-09-25T20:01:16.005Z,99.90
2022-09-25T20:03:43.679Z,99.90
2022-09-25T20:06:11.418Z,99.90
2022-09-25T20:08:38.858Z,99.90
2022-09-25T20:11:12.962Z,99.90
2022-09-25T20:13:39.830Z,99.90
2022-09-25T20:16:10.922Z,99.90
2022-09-25T20:18:37.896Z,99.90
2022-09-25T20:21:06.711Z,99.90
2022-09-25T20:23:34.224Z,99.90
2022-09-25T20:26:30.910Z,99.90
2022-09-25T20:29:00.059Z,99.90
2022-09-25T20:31:28.857Z,99.90
2022-09-25T20:33:55.922Z,99.90
2022-09-25T20:36:23.222Z,99.90
2022-09-25T20:38:54.620Z,99.90
2022-09-25T20:41:23.600Z,99.90
2022-09-25T20:43:52.379Z,99.90
2022-09-25T20:46:20.459Z,99.90
2022-09-25T20:48:51.320Z,99.90
2022-09-25T20:51:21.134Z,99.90
2022-09-25T20:53:53.039Z,99.90
2022-09-25T20:56:20.438Z,99.90
2022-09-25T20:58:52.911Z,99.90
2022-09-25T21:01:22.898Z,99.90
2022-09-25T21:03:50.972Z,99.90
2022-09-25T21:06:24.188Z,99.90
2022-09-25T21:08:56.624Z,99.90
2022-09-25T21:11:25.055Z,99.90
2022-09-25T21:13:53.555Z,99.90
2022-09-25T21:16:22.001Z,99.90
2022-09-25T21:19:04.664Z,99.90
2022-09-25T21:21:33.507Z,99.90
2022-09-25T21:24:01.498Z,99.90
2022-09-25T21:26:30.066Z,99.90
2022-09-25T21:28:59.037Z,99.90
2022-09-25T21:31:31.816Z,99.90
2022-09-25T21:33:59.550Z,99.90
2022-09-25T21:36:27.776Z,99.90
2022-09-25T21:38:55.088Z,99.90
2022-09-25T21:41:23.975Z,99.90
2022-09-25T21:44:20.656Z,99.90
2022-09-25T21:46:47.438Z,99.90
2022-09-25T21:49:16.970Z,99.90
2022-09-25T21:51:45.302Z,99.90
2022-09-25T21:54:13.790Z,99.90
2022-09-25T21:56:41.327Z,99.90
2022-09-25T21:59:09.289Z,99.90
2022-09-25T22:01:38.458Z,99.90
2022-09-25T22:04:06.955Z,99.90
2022-09-25T22:06:37.251Z,99.90
2022-09-25T22:09:07.421Z,99.90
2022-09-25T22:11:34.491Z,99.90
2022-09-25T22:14:01.907Z,99.90
2022-09-25T22:16:37.594Z,99.90
2022-09-25T22:19:12.127Z,99.90
2022-09-25T22:21:40.477Z,99.90
2022-09-25T22:24:08.564Z,99.90
2022-09-25T22:26:38.173Z,99.90
2022-09-25T22:29:05.792Z,99.90
2022-09-25T22:31:34.628Z,99.90
2022-09-25T22:34:13.509Z,99.90
2022-09-25T22:36:40.335Z,99.90
2022-09-25T22:39:07.158Z,99.90
2022-09-25T22:41:34.046Z,99.90
2022-09-25T22:44:01.541Z,99.90
2022-09-25T22:46:29.044Z,99.90
2022-09-25T22:48:56.285Z,99.90
2022-09-25T22:51:24.766Z,99.90
2022-09-25T22:53:52.802Z,99.90
2022-09-25T22:56:23.050Z,99.90
2022-09-25T22:58:56.075Z,99.90
2022-09-25T23:01:40.707Z,99.90
2022-09-25T23:04:12.819Z,99.90
2022-09-25T23:06:40.000Z,99.90
2022-09-25T23:09:10.632Z,99.90
2022-09-25T23:11:37.752Z,99.90
2022-09-25T23:14:11.588Z,99.90
2022-09-25T23:16:38.715Z,99.90
2022-09-25T23:19:05.712Z,99.90
2022-09-25T23:21:32.832Z,99.90
2022-09-25T23:24:02.015Z,99.90
2022-09-25T23:26:29.821Z,99.90
2022-09-25T23:28:58.674Z,99.90
2022-09-25T23:31:26.373Z,99.90
2022-09-25T23:33:53.265Z,99.90
2022-09-25T23:36:22.786Z,99.90
2022-09-25T23:38:51.441Z,99.90
2022-09-25T23:41:27.059Z,99.90
2022-09-25T23:43:55.024Z,99.90
2022-09-25T23:46:23.610Z,99.90
2022-09-25T23:48:50.999Z,99.90
2022-09-25T23:51:18.813Z,99.90
2022-09-25T23:53:46.690Z,99.90
2022-09-25T23:56:22.513Z,99.90
2022-09-25T23:58:50.337Z,99.90
